Terminal Aerodrome Forecast
Issued by NWS Wilmington, OH

Current Version | Previous Version | Graphics & Text | Print | Product List | Glossary On
Versions: 1 2 3 4 5 6 7 8 9 10 11 12 13 14 15 16 17 18 19 20 21 22 23 24 25
000
FTUS41 KILN 171135
TAFCVG
TAF
KCVG 171135Z 1712/1818 19008KT P6SM SCT090
     FM171500 20008KT P6SM VCTS SCT050CB BKN120
     FM171900 22011G18KT P6SM -SHRA VCTS BKN040CB
     FM180300 22008KT P6SM BKN070
     FM180700 24004KT 5SM BR SCT015
     FM181300 26010KT P6SM FEW025=

USA.gov is the U.S. government's official web portal to all federal, state and local government web resources and services.